Time;durP1;ratioP1;P1;durP2;ratioP2;P2;SDS_P1;SDS_P2;PMS_P1;PMS_P2;Temp;Humidity;BMP_temperature;BMP_pressure;BME280_temperature;BME280_humidity;BME280_pressure;Samples;Min_cycle;Max_cycle;Signal;HPM_P1;HPM_P2
2023/07/05 00:01:30;;;;;;;3.40;1.48;;;21.80;97.00;;;;;;5013672;28;20121;-75
2023/07/05 00:03:56;;;;;;;2.95;1.65;;;21.80;96.60;;;;;;5012701;28;20033;-74
2023/07/05 00:06:21;;;;;;;2.88;1.00;;;21.80;96.20;;;;;;5013587;28;20030;-74
2023/07/05 00:08:47;;;;;;;0.93;0.73;;;21.90;95.60;;;;;;5013407;28;20018;-75
2023/07/05 00:11:14;;;;;;;1.77;0.75;;;21.80;94.60;;;;;;5013545;28;20483;-75
2023/07/05 00:13:40;;;;;;;1.40;0.63;;;21.80;94.10;;;;;;5012201;28;20058;-75
2023/07/05 00:16:06;;;;;;;2.22;0.75;;;21.70;93.70;;;;;;5013627;28;20022;-74
2023/07/05 00:18:32;;;;;;;0.90;0.40;;;21.70;93.50;;;;;;5013479;28;20054;-75
2023/07/05 00:21:01;;;;;;;2.65;0.75;;;21.70;93.50;;;;;;5013291;28;20048;-74
2023/07/05 00:23:28;;;;;;;2.30;0.80;;;21.60;93.50;;;;;;5012423;28;20045;-75
2023/07/05 00:25:54;;;;;;;2.33;0.70;;;21.60;93.40;;;;;;5013352;28;20052;-74
2023/07/05 00:28:19;;;;;;;2.47;0.77;;;21.60;93.20;;;;;;5012211;28;20026;-75
2023/07/05 00:30:46;;;;;;;1.52;0.57;;;21.60;93.40;;;;;;5012030;28;20100;-74
2023/07/05 00:33:12;;;;;;;2.03;0.68;;;21.50;93.20;;;;;;5013318;28;20022;-75
2023/07/05 00:35:46;;;;;;;2.88;0.57;;;21.50;93.30;;;;;;5013238;28;20050;-75
2023/07/05 00:38:11;;;;;;;2.15;0.65;;;21.50;93.30;;;;;;5013115;28;20076;-75
2023/07/05 00:40:37;;;;;;;0.90;0.40;;;21.50;93.20;;;;;;5013026;28;20037;-75
2023/07/05 00:43:02;;;;;;;1.92;0.70;;;21.50;93.10;;;;;;5013102;28;20022;-74
2023/07/05 00:45:50;;;;;;;2.05;0.80;;;21.50;93.30;;;;;;5013311;28;20033;-74
2023/07/05 00:48:19;;;;;;;3.17;1.00;;;21.40;93.00;;;;;;5013154;28;20041;-74
2023/07/05 00:50:49;;;;;;;1.73;0.80;;;21.40;93.00;;;;;;5012902;28;20032;-74
2023/07/05 00:53:15;;;;;;;2.28;0.95;;;21.30;92.90;;;;;;5013135;28;20032;-75
2023/07/05 00:55:47;;;;;;;3.53;1.00;;;21.40;93.20;;;;;;5013218;28;20135;-73
2023/07/05 00:58:13;;;;;;;1.58;0.80;;;21.30;92.80;;;;;;5013054;28;20022;-74
2023/07/05 01:00:39;;;;;;;3.42;1.13;;;21.30;92.20;;;;;;5013005;28;20041;-75
2023/07/05 01:03:10;;;;;;;2.08;1.33;;;21.30;92.20;;;;;;5011728;28;20025;-74
2023/07/05 01:05:36;;;;;;;1.90;1.10;;;21.30;91.70;;;;;;5012843;28;20049;-74
2023/07/05 01:08:04;;;;;;;3.28;1.40;;;21.20;91.60;;;;;;5012905;28;20362;-74
2023/07/05 01:10:30;;;;;;;2.00;1.13;;;21.20;91.60;;;;;;5013037;28;20029;-74
2023/07/05 01:13:11;;;;;;;3.50;1.70;;;21.20;91.50;;;;;;5012878;28;20092;-75
2023/07/05 01:15:57;;;;;;;2.83;2.05;;;21.20;91.50;;;;;;5013043;28;20101;-74
2023/07/05 01:18:34;;;;;;;3.05;2.00;;;21.20;91.40;;;;;;5013012;28;20559;-74
2023/07/05 01:21:00;;;;;;;4.93;1.98;;;21.20;91.20;;;;;;5012626;28;20034;-75
2023/07/05 01:24:04;;;;;;;2.85;1.98;;;21.20;91.10;;;;;;5011585;28;20025;-74
2023/07/05 01:26:58;;;;;;;3.35;2.10;;;21.10;91.00;;;;;;4991017;28;20073;-74
2023/07/05 01:29:42;;;;;;;7.57;2.10;;;21.10;91.10;;;;;;5012583;28;20032;-74
2023/07/05 01:32:24;;;;;;;5.03;2.55;;;21.00;90.90;;;;;;5012921;28;20033;-74
2023/07/05 01:34:55;;;;;;;3.95;2.03;;;21.00;90.90;;;;;;5013574;28;20037;-74
2023/07/05 01:37:31;;;;;;;4.72;2.28;;;21.10;90.90;;;;;;5014781;28;20050;-74
2023/07/05 01:39:57;;;;;;;3.55;2.35;;;21.00;90.90;;;;;;5016165;28;20069;-74
2023/07/05 01:42:33;;;;;;;5.22;2.25;;;21.00;91.10;;;;;;5016475;28;20068;-74
2023/07/05 01:44:59;;;;;;;3.42;2.55;;;21.00;90.90;;;;;;5016249;28;20014;-74
2023/07/05 01:47:33;;;;;;;3.85;2.60;;;21.00;91.10;;;;;;5016390;28;20029;-74
2023/07/05 01:50:08;;;;;;;5.32;2.53;;;20.90;90.80;;;;;;5015955;28;20022;-74
2023/07/05 01:52:51;;;;;;;5.50;2.45;;;20.90;90.90;;;;;;5014766;28;20379;-73
2023/07/05 01:55:43;;;;;;;4.63;2.20;;;20.90;90.70;;;;;;5014798;28;20036;-75
2023/07/05 01:58:14;;;;;;;4.10;2.50;;;20.90;90.60;;;;;;5016007;28;20022;-74
2023/07/05 02:00:41;;;;;;;4.47;2.72;;;20.90;90.80;;;;;;5015810;28;20034;-74
2023/07/05 02:03:12;;;;;;;6.47;2.92;;;20.80;90.50;;;;;;5015831;28;20018;-75
2023/07/05 02:05:38;;;;;;;4.57;2.47;;;20.80;90.50;;;;;;5015665;28;20434;-74
2023/07/05 02:08:04;;;;;;;4.45;2.40;;;20.80;90.50;;;;;;5015845;28;20479;-74
2023/07/05 02:10:32;;;;;;;5.32;3.50;;;20.70;90.60;;;;;;5015697;28;20030;-74
2023/07/05 02:12:58;;;;;;;3.53;2.45;;;20.70;90.60;;;;;;5015645;28;20438;-74
2023/07/05 02:15:24;;;;;;;3.80;2.53;;;20.70;90.60;;;;;;5015635;28;20083;-74
2023/07/05 02:17:50;;;;;;;6.60;2.70;;;20.70;90.60;;;;;;5015428;28;20519;-74
2023/07/05 02:20:16;;;;;;;5.10;2.92;;;20.70;90.60;;;;;;5015493;28;20109;-74
2023/07/05 02:22:42;;;;;;;7.57;2.75;;;20.60;90.50;;;;;;5015413;28;20036;-74
2023/07/05 02:25:07;;;;;;;5.15;2.92;;;20.70;90.60;;;;;;5015368;28;20030;-74
2023/07/05 02:27:33;;;;;;;5.35;3.28;;;20.60;90.60;;;;;;5015502;28;20026;-74
2023/07/05 02:29:58;;;;;;;5.95;3.60;;;20.60;90.50;;;;;;5015225;28;20022;-75
2023/07/05 02:32:24;;;;;;;4.38;2.85;;;20.60;90.70;;;;;;5013935;28;20109;-74
2023/07/05 02:34:51;;;;;;;7.50;3.47;;;20.60;90.40;;;;;;5015188;28;20383;-74
2023/07/05 02:37:16;;;;;;;4.63;3.17;;;20.60;90.50;;;;;;5015319;28;20391;-75
2023/07/05 02:39:42;;;;;;;6.55;3.38;;;20.60;90.40;;;;;;5015183;28;20486;-74
2023/07/05 02:42:08;;;;;;;5.97;4.00;;;20.60;90.30;;;;;;5015088;28;20049;-74
2023/07/05 02:44:34;;;;;;;5.35;3.88;;;20.50;90.50;;;;;;5014966;28;20034;-74
2023/07/05 02:47:00;;;;;;;9.43;3.92;;;20.50;90.40;;;;;;5014160;28;20084;-74
2023/07/05 02:49:26;;;;;;;6.63;3.75;;;20.50;90.40;;;;;;5014923;28;20026;-74
2023/07/05 02:51:52;;;;;;;8.82;3.92;;;20.50;90.40;;;;;;5014997;28;20156;-74
2023/07/05 02:54:18;;;;;;;7.65;4.13;;;20.50;90.50;;;;;;5013578;28;20507;-75
2023/07/05 02:56:43;;;;;;;6.72;4.22;;;20.40;90.50;;;;;;5014959;28;20076;-74
2023/07/05 02:59:09;;;;;;;5.80;4.10;;;20.40;90.50;;;;;;5014756;28;20459;-75
2023/07/05 03:01:34;;;;;;;4.82;3.80;;;20.40;90.70;;;;;;5014479;28;20091;-74
2023/07/05 03:04:00;;;;;;;7.57;4.10;;;20.40;90.70;;;;;;5014711;28;20072;-74
2023/07/05 03:06:25;;;;;;;7.40;4.22;;;20.40;90.60;;;;;;5014744;28;20072;-74
2023/07/05 03:08:51;;;;;;;6.65;4.05;;;20.30;90.60;;;;;;5014672;28;20034;-74
2023/07/05 03:11:16;;;;;;;7.88;4.07;;;20.30;90.60;;;;;;5014632;28;20100;-73
2023/07/05 03:13:42;;;;;;;5.45;4.07;;;20.30;90.60;;;;;;5014572;28;20057;-74
2023/07/05 03:16:08;;;;;;;7.38;3.67;;;20.30;90.60;;;;;;5014098;28;20034;-75
2023/07/05 03:18:34;;;;;;;6.07;3.70;;;20.30;90.50;;;;;;5014684;28;20025;-74
2023/07/05 03:20:59;;;;;;;5.65;3.85;;;20.20;90.50;;;;;;5014250;28;20026;-74
2023/07/05 03:23:25;;;;;;;5.82;3.80;;;20.30;90.70;;;;;;5014684;28;20048;-74
2023/07/05 03:25:55;;;;;;;6.10;4.25;;;20.20;90.50;;;;;;5014323;28;20022;-75
2023/07/05 03:28:20;;;;;;;5.65;3.90;;;20.30;90.60;;;;;;5014213;28;20144;-74
2023/07/05 03:31:05;;;;;;;7.97;4.22;;;20.20;90.50;;;;;;5013946;28;20049;-74
2023/07/05 03:33:32;;;;;;;6.80;4.43;;;20.20;90.40;;;;;;5014294;28;20018;-74
2023/07/05 03:36:00;;;;;;;5.82;3.90;;;20.20;90.50;;;;;;5014253;28;20022;-74
2023/07/05 03:38:28;;;;;;;8.57;3.95;;;20.20;91.00;;;;;;5014331;28;20102;-74
2023/07/05 03:41:03;;;;;;;5.97;4.03;;;20.20;91.50;;;;;;5013795;28;20103;-74
2023/07/05 03:43:32;;;;;;;5.93;3.50;;;20.10;91.70;;;;;;5012736;28;20475;-74
2023/07/05 03:45:59;;;;;;;9.48;4.35;;;20.10;91.70;;;;;;5013646;28;20493;-74
2023/07/05 03:48:26;;;;;;;6.70;4.07;;;20.10;91.70;;;;;;5014095;28;20026;-74
2023/07/05 03:50:56;;;;;;;6.53;3.65;;;20.10;91.80;;;;;;5013828;28;20057;-75
2023/07/05 03:53:21;;;;;;;5.50;3.80;;;20.00;91.80;;;;;;5013884;28;20064;-75
2023/07/05 03:55:47;;;;;;;6.53;3.80;;;20.00;91.70;;;;;;5013822;28;20049;-74
2023/07/05 03:58:12;;;;;;;8.75;3.47;;;20.00;91.60;;;;;;5011385;28;20029;-74
2023/07/05 04:00:38;;;;;;;6.97;3.95;;;20.00;91.50;;;;;;5012691;28;20046;-74
2023/07/05 04:03:04;;;;;;;5.40;3.53;;;19.90;91.50;;;;;;5013542;28;20022;-74
2023/07/05 04:05:29;;;;;;;5.13;3.58;;;19.90;91.50;;;;;;5013731;28;20030;-73
2023/07/05 04:07:55;;;;;;;5.07;3.30;;;19.90;91.60;;;;;;5013720;28;20030;-73
2023/07/05 04:10:20;;;;;;;7.80;3.50;;;19.90;91.50;;;;;;5013911;28;20033;-74
2023/07/05 04:12:46;;;;;;;7.10;3.85;;;19.90;91.50;;;;;;5013623;28;20022;-74
2023/07/05 04:15:11;;;;;;;6.22;3.53;;;19.90;91.50;;;;;;5012078;28;20113;-73
2023/07/05 04:17:37;;;;;;;6.00;3.22;;;19.90;91.60;;;;;;5013574;28;20030;-73
2023/07/05 04:20:03;;;;;;;5.57;3.55;;;19.90;91.50;;;;;;5013528;28;20022;-73
2023/07/05 04:22:38;;;;;;;5.28;3.25;;;19.80;91.50;;;;;;5013355;28;20475;-74
2023/07/05 04:25:04;;;;;;;6.07;3.40;;;19.90;91.40;;;;;;5013516;28;20475;-73
2023/07/05 04:27:29;;;;;;;7.30;3.58;;;19.90;91.40;;;;;;5013383;28;20026;-73
2023/07/05 04:29:55;;;;;;;4.78;3.38;;;19.80;91.30;;;;;;5013231;28;20076;-74
2023/07/05 04:32:20;;;;;;;4.65;2.80;;;19.80;91.30;;;;;;5013392;28;20048;-73
2023/07/05 04:34:46;;;;;;;6.30;3.25;;;19.70;91.30;;;;;;5013329;28;20018;-73
2023/07/05 04:37:11;;;;;;;4.95;3.22;;;19.70;91.20;;;;;;5013257;28;20060;-74
2023/07/05 04:39:37;;;;;;;7.90;2.70;;;19.70;91.20;;;;;;5013203;28;20034;-74
2023/07/05 04:42:03;;;;;;;5.05;3.17;;;19.70;91.10;;;;;;5007843;28;20092;-73
2023/07/05 04:44:29;;;;;;;3.20;2.55;;;19.70;91.00;;;;;;4999449;28;20037;-73
2023/07/05 04:46:54;;;;;;;6.47;3.47;;;19.70;91.00;;;;;;5003066;28;20034;-74
2023/07/05 04:49:20;;;;;;;4.47;2.83;;;19.70;91.20;;;;;;5002628;28;20026;-74
2023/07/05 04:51:46;;;;;;;5.00;3.40;;;19.70;90.90;;;;;;5007653;28;20026;-74
2023/07/05 04:54:12;;;;;;;5.97;3.10;;;19.70;90.90;;;;;;5000725;28;20464;-73
2023/07/05 04:56:38;;;;;;;5.47;2.97;;;19.70;90.90;;;;;;5006839;28;20018;-73
2023/07/05 04:59:03;;;;;;;4.55;3.03;;;19.70;91.00;;;;;;5000956;28;20080;-74
2023/07/05 05:01:29;;;;;;;6.13;3.13;;;19.60;90.80;;;;;;4993351;28;20081;-74
2023/07/05 05:03:54;;;;;;;6.30;3.50;;;19.70;90.70;;;;;;4993218;28;20031;-74
2023/07/05 05:06:20;;;;;;;5.43;3.22;;;19.70;90.80;;;;;;4992340;28;20112;-74
2023/07/05 05:08:45;;;;;;;5.75;3.67;;;19.70;90.80;;;;;;4998329;28;20472;-74
2023/07/05 05:11:11;;;;;;;5.47;3.28;;;19.60;90.80;;;;;;4999655;28;20475;-74
2023/07/05 05:13:37;;;;;;;5.88;2.67;;;19.60;90.70;;;;;;5006936;28;20040;-74
2023/07/05 05:16:03;;;;;;;5.88;3.25;;;19.60;91.10;;;;;;5009054;28;20135;-74
2023/07/05 05:18:31;;;;;;;6.22;2.90;;;19.60;90.80;;;;;;4999592;28;20096;-74
2023/07/05 05:20:57;;;;;;;4.75;2.45;;;19.60;90.50;;;;;;4999562;28;20037;-74
2023/07/05 05:23:23;;;;;;;2.88;2.33;;;19.70;90.30;;;;;;5013661;28;20029;-74
2023/07/05 05:25:50;;;;;;;6.25;2.92;;;19.60;90.20;;;;;;5010086;28;20022;-74
2023/07/05 05:28:16;;;;;;;6.68;2.63;;;19.60;90.30;;;;;;5000337;28;20073;-75
2023/07/05 05:30:43;;;;;;;6.53;2.90;;;19.50;90.20;;;;;;5002493;28;20059;-74
2023/07/05 05:33:10;;;;;;;4.57;2.63;;;19.50;90.10;;;;;;5016194;28;20030;-74
2023/07/05 05:35:35;;;;;;;3.80;2.75;;;19.50;90.30;;;;;;5008574;28;20057;-74
2023/07/05 05:38:03;;;;;;;5.53;2.40;;;19.50;90.30;;;;;;5016383;28;20022;-74
2023/07/05 05:40:29;;;;;;;5.25;2.53;;;19.50;90.50;;;;;;5016147;28;20037;-73
2023/07/05 05:42:57;;;;;;;4.13;2.10;;;19.50;90.30;;;;;;5014233;28;20034;-73
2023/07/05 05:45:23;;;;;;;3.15;2.28;;;19.50;90.20;;;;;;5006246;28;20034;-74
2023/07/05 05:47:49;;;;;;;8.25;2.95;;;19.50;90.30;;;;;;5011324;28;20030;-73
2023/07/05 05:50:15;;;;;;;6.32;2.50;;;19.40;90.20;;;;;;5016180;28;20026;-74
2023/07/05 05:52:41;;;;;;;5.38;2.25;;;19.40;90.20;;;;;;5015396;28;20057;-74
2023/07/05 05:55:07;;;;;;;3.95;2.42;;;19.40;90.30;;;;;;5006704;28;20414;-73
2023/07/05 05:57:32;;;;;;;4.45;2.30;;;19.40;90.20;;;;;;5014273;28;20022;-73
2023/07/05 05:59:58;;;;;;;4.63;2.20;;;19.50;90.20;;;;;;5004935;28;20033;-73
2023/07/05 06:02:24;;;;;;;3.75;2.40;;;19.40;90.00;;;;;;5010458;28;20408;-73
2023/07/05 06:04:49;;;;;;;3.65;1.63;;;19.50;90.30;;;;;;5016209;28;20067;-73
2023/07/05 06:07:15;;;;;;;4.82;2.25;;;19.50;90.10;;;;;;5015868;28;20084;-74
2023/07/05 06:09:46;;;;;;;2.60;1.60;;;19.50;90.10;;;;;;5013844;28;20030;-75
2023/07/05 06:12:12;;;;;;;6.70;2.05;;;19.40;90.20;;;;;;5008208;28;20160;-74
2023/07/05 06:14:38;;;;;;;6.75;2.13;;;19.40;90.40;;;;;;5000111;28;20097;-76
2023/07/05 06:17:04;;;;;;;7.03;2.17;;;19.40;90.40;;;;;;5012728;28;20153;-75
2023/07/05 06:19:30;;;;;;;5.40;2.25;;;19.50;90.60;;;;;;4997653;28;20040;-74
2023/07/05 06:21:55;;;;;;;3.65;1.92;;;19.40;90.40;;;;;;4994764;28;20038;-75
2023/07/05 06:24:21;;;;;;;4.20;1.75;;;19.50;90.40;;;;;;5011060;28;20025;-77
2023/07/05 06:26:47;;;;;;;5.75;1.85;;;19.40;90.60;;;;;;5015504;28;20105;-76
2023/07/05 06:29:12;;;;;;;2.78;1.40;;;19.50;90.70;;;;;;5016418;28;20475;-71
2023/07/05 06:31:38;;;;;;;5.28;2.22;;;19.50;90.40;;;;;;5014866;28;20034;-72
2023/07/05 06:34:03;;;;;;;5.95;1.40;;;19.50;90.50;;;;;;5012817;28;20041;-74
2023/07/05 06:36:29;;;;;;;4.10;1.70;;;19.60;90.60;;;;;;5003366;28;20483;-73
2023/07/05 06:38:54;;;;;;;4.57;1.80;;;19.60;90.50;;;;;;5009283;28;20456;-73
2023/07/05 06:41:20;;;;;;;3.53;1.63;;;19.60;90.20;;;;;;5010741;28;20085;-76
2023/07/05 06:43:46;;;;;;;3.65;1.65;;;19.60;90.30;;;;;;5000933;28;20487;-74
2023/07/05 06:46:11;;;;;;;5.85;1.73;;;19.60;90.70;;;;;;5008535;28;20055;-73
2023/07/05 06:48:37;;;;;;;4.95;1.83;;;19.60;90.70;;;;;;5009976;28;20062;-74
2023/07/05 06:51:02;;;;;;;2.78;1.30;;;19.70;90.60;;;;;;5012372;28;20053;-72
2023/07/05 06:53:29;;;;;;;7.97;1.90;;;19.70;90.50;;;;;;5002151;28;21286;-73
2023/07/05 06:55:55;;;;;;;4.47;1.38;;;19.70;90.60;;;;;;5016166;28;20022;-75
2023/07/05 06:58:20;;;;;;;5.03;1.50;;;19.80;91.00;;;;;;5011729;28;20041;-72
2023/07/05 07:00:48;;;;;;;2.92;1.35;;;19.80;91.10;;;;;;5019886;28;21512;-72
2023/07/05 07:03:14;;;;;;;7.03;1.70;;;19.80;90.70;;;;;;5004897;28;20026;-73
2023/07/05 07:05:40;;;;;;;3.00;1.20;;;19.90;90.40;;;;;;5000276;28;20387;-75
2023/07/05 07:08:05;;;;;;;4.93;1.42;;;19.90;90.90;;;;;;5011180;28;20022;-75
2023/07/05 07:10:35;;;;;;;5.60;1.80;;;19.90;90.60;;;;;;5003864;28;20040;-74
2023/07/05 07:13:02;;;;;;;5.85;1.67;;;19.90;90.70;;;;;;5005016;28;20038;-76
2023/07/05 07:15:28;;;;;;;6.00;1.65;;;19.90;90.80;;;;;;5010526;28;20032;-76
2023/07/05 07:17:54;;;;;;;2.85;1.40;;;20.00;90.80;;;;;;5000434;28;20026;-75
2023/07/05 07:20:19;;;;;;;5.15;1.80;;;20.00;90.60;;;;;;5010200;28;20029;-73
2023/07/05 07:22:45;;;;;;;4.55;1.60;;;20.00;90.40;;;;;;4997694;28;20044;-75
2023/07/05 07:25:11;;;;;;;9.07;1.65;;;20.00;90.50;;;;;;5005637;28;20022;-72
2023/07/05 07:27:36;;;;;;;4.13;1.40;;;20.00;90.40;;;;;;5001606;28;20025;-73
2023/07/05 07:30:02;;;;;;;7.35;1.33;;;20.00;90.70;;;;;;5002606;28;20055;-74
2023/07/05 07:32:28;;;;;;;6.72;1.60;;;20.10;90.70;;;;;;5001383;28;20038;-74
2023/07/05 07:34:55;;;;;;;4.18;1.33;;;20.10;90.90;;;;;;5001029;28;20498;-73
2023/07/05 07:37:20;;;;;;;7.95;1.83;;;20.20;91.00;;;;;;5005152;28;20504;-71
2023/07/05 07:39:46;;;;;;;3.95;1.30;;;20.20;90.80;;;;;;4997584;28;20030;-73
2023/07/05 07:42:12;;;;;;;3.97;1.13;;;20.20;90.70;;;;;;5004244;28;20554;-73
2023/07/05 07:44:37;;;;;;;6.40;1.63;;;20.30;90.80;;;;;;5009838;28;20030;-71
2023/07/05 07:47:04;;;;;;;7.75;1.33;;;20.30;90.80;;;;;;5004258;28;20062;-72
2023/07/05 07:49:29;;;;;;;7.18;1.73;;;20.30;90.50;;;;;;5002929;28;20024;-72
2023/07/05 07:51:55;;;;;;;7.43;1.92;;;20.30;90.70;;;;;;5003322;28;20034;-72
2023/07/05 07:54:26;;;;;;;17.92;2.30;;;20.40;90.70;;;;;;4998756;28;20471;-72
2023/07/05 07:56:54;;;;;;;8.18;1.65;;;20.40;90.40;;;;;;5004840;28;20029;-73
2023/07/05 07:59:21;;;;;;;6.43;1.30;;;20.50;90.00;;;;;;5002092;28;20474;-73
2023/07/05 08:01:56;;;;;;;5.82;1.25;;;20.50;89.70;;;;;;4997997;28;20049;-71
2023/07/05 08:04:22;;;;;;;5.25;1.45;;;20.50;89.20;;;;;;5004321;28;20498;-75
2023/07/05 08:06:50;;;;;;;6.05;1.70;;;20.60;88.90;;;;;;5000093;28;20026;-73
2023/07/05 08:09:17;;;;;;;11.88;1.65;;;20.60;88.40;;;;;;5003954;28;20022;-74
2023/07/05 08:11:43;;;;;;;3.83;1.40;;;20.60;88.30;;;;;;4992831;28;20030;-74
2023/07/05 08:14:09;;;;;;;8.02;1.77;;;20.70;88.90;;;;;;5004639;28;20076;-73
2023/07/05 08:16:36;;;;;;;4.68;1.35;;;20.70;87.50;;;;;;5004795;28;20030;-73
2023/07/05 08:19:02;;;;;;;5.25;1.55;;;20.80;87.80;;;;;;5004860;28;20042;-70
2023/07/05 08:21:28;;;;;;;7.40;1.80;;;20.80;88.00;;;;;;5002856;28;20495;-74
2023/07/05 08:23:54;;;;;;;8.25;1.73;;;20.80;86.40;;;;;;5001308;28;20033;-73
2023/07/05 08:26:22;;;;;;;4.75;1.58;;;20.90;88.00;;;;;;5001226;28;20467;-76
2023/07/05 08:28:48;;;;;;;10.32;1.70;;;20.90;87.50;;;;;;4997577;28;20054;-73
2023/07/05 08:31:15;;;;;;;7.47;1.70;;;20.90;88.40;;;;;;5003257;28;20041;-74
2023/07/05 08:33:43;;;;;;;7.00;1.67;;;20.90;88.50;;;;;;5005633;28;20069;-74
2023/07/05 08:36:14;;;;;;;5.80;1.60;;;21.00;88.40;;;;;;5006433;28;20036;-72
2023/07/05 08:38:50;;;;;;;6.90;1.37;;;21.00;88.30;;;;;;4999402;28;20105;-73
2023/07/05 08:41:41;;;;;;;6.32;1.60;;;21.00;88.60;;;;;;5002550;28;20336;-74
2023/07/05 08:44:22;;;;;;;5.60;1.63;;;21.00;88.60;;;;;;5001115;28;20157;-74
2023/07/05 08:47:11;;;;;;;9.05;1.70;;;21.00;88.60;;;;;;4998637;28;20081;-74
2023/07/05 08:49:39;;;;;;;7.80;1.63;;;21.10;88.30;;;;;;4994245;28;20030;-74
2023/07/05 08:52:23;;;;;;;7.70;1.33;;;21.10;87.50;;;;;;4996778;28;20026;-74
2023/07/05 08:54:57;;;;;;;8.48;1.38;;;21.10;87.70;;;;;;4996012;28;20022;-73
2023/07/05 08:57:33;;;;;;;5.35;1.45;;;21.10;87.60;;;;;;4995697;28;20029;-73
2023/07/05 09:00:05;;;;;;;4.53;1.27;;;21.20;87.30;;;;;;4997349;28;20026;-73
2023/07/05 09:02:32;;;;;;;6.65;1.25;;;21.20;87.30;;;;;;4996960;28;20050;-73
2023/07/05 09:04:58;;;;;;;5.95;1.77;;;21.20;87.00;;;;;;4997126;28;20412;-74
2023/07/05 09:07:24;;;;;;;4.13;1.50;;;21.20;87.00;;;;;;4997457;28;20022;-73
2023/07/05 09:10:02;;;;;;;7.60;1.60;;;21.30;86.60;;;;;;4997369;28;20022;-74
2023/07/05 09:13:13;;;;;;;7.15;1.52;;;21.30;86.50;;;;;;4997207;28;20030;-73
2023/07/05 09:15:54;;;;;;;7.43;1.38;;;21.30;85.90;;;;;;4974234;28;20464;-73
2023/07/05 09:18:35;;;;;;;6.32;1.52;;;21.30;86.50;;;;;;4995652;28;20073;-74
2023/07/05 09:21:10;;;;;;;5.20;1.08;;;21.40;85.90;;;;;;4997274;28;20030;-74
2023/07/05 09:23:47;;;;;;;2.70;1.38;;;21.30;85.70;;;;;;4996927;28;20110;-73
2023/07/05 09:26:23;;;;;;;5.85;1.10;;;21.40;85.70;;;;;;4997089;28;20475;-74
2023/07/05 09:29:00;;;;;;;5.53;1.00;;;21.40;84.30;;;;;;4996686;28;20096;-73
2023/07/05 09:31:27;;;;;;;4.03;1.17;;;21.40;85.60;;;;;;4997101;28;20033;-73
2023/07/05 09:34:17;;;;;;;4.35;1.10;;;21.40;84.50;;;;;;4996402;28;20026;-74
2023/07/05 09:36:45;;;;;;;6.90;1.45;;;21.50;84.40;;;;;;4996825;28;20037;-73
2023/07/05 09:39:41;;;;;;;7.32;1.25;;;21.50;85.20;;;;;;4996625;28;20018;-74
2023/07/05 09:42:15;;;;;;;6.05;1.20;;;21.50;85.20;;;;;;4971892;28;20062;-74
2023/07/05 09:44:40;;;;;;;3.90;1.40;;;21.50;84.90;;;;;;4996501;28;20033;-73
2023/07/05 09:47:07;;;;;;;3.05;0.82;;;21.50;85.00;;;;;;4996693;28;20027;-73
2023/07/05 09:49:33;;;;;;;3.17;0.90;;;21.60;84.60;;;;;;4996205;28;20026;-73
2023/07/05 09:51:59;;;;;;;3.20;1.70;;;21.60;83.30;;;;;;4996560;28;20468;-74
2023/07/05 09:54:29;;;;;;;3.10;0.95;;;21.60;83.00;;;;;;4996587;28;20069;-73
2023/07/05 09:56:57;;;;;;;4.68;0.75;;;21.60;82.90;;;;;;4996426;28;20506;-73
2023/07/05 09:59:23;;;;;;;3.40;0.88;;;21.60;82.80;;;;;;4996258;28;20476;-73
2023/07/05 10:01:53;;;;;;;5.63;1.25;;;21.60;83.90;;;;;;4996156;28;20042;-73
2023/07/05 10:04:27;;;;;;;3.00;0.80;;;21.60;83.20;;;;;;4996243;28;20101;-73
2023/07/05 10:06:54;;;;;;;3.78;1.02;;;21.70;83.20;;;;;;4996243;28;20057;-73
2023/07/05 10:09:24;;;;;;;3.13;0.98;;;21.70;83.20;;;;;;4995953;28;20035;-74
2023/07/05 10:11:53;;;;;;;2.47;0.90;;;21.70;83.10;;;;;;4996583;28;20027;-74
2023/07/05 10:14:27;;;;;;;2.58;0.88;;;21.70;81.40;;;;;;4995844;28;20030;-74
2023/07/05 10:17:08;;;;;;;2.97;0.98;;;21.70;82.20;;;;;;4995844;28;20372;-74
2023/07/05 10:19:57;;;;;;;5.50;1.00;;;21.70;83.10;;;;;;4995990;28;20379;-74
2023/07/05 10:22:27;;;;;;;2.28;0.80;;;21.70;81.70;;;;;;4994786;28;20088;-73
2023/07/05 10:24:57;;;;;;;3.63;0.95;;;21.70;81.20;;;;;;4995726;28;20025;-73
2023/07/05 10:27:35;;;;;;;3.95;0.90;;;21.80;81.60;;;;;;4996006;28;20041;-73
2023/07/05 10:30:20;;;;;;;1.92;0.60;;;21.80;82.20;;;;;;4995931;28;20542;-73
2023/07/05 10:32:51;;;;;;;2.40;0.73;;;21.80;83.20;;;;;;4995355;28;20097;-73
2023/07/05 10:35:26;;;;;;;5.18;1.08;;;21.80;82.30;;;;;;4995761;28;20434;-74
2023/07/05 10:37:52;;;;;;;3.08;0.63;;;21.80;82.80;;;;;;4995857;28;20084;-73
2023/07/05 10:40:21;;;;;;;3.28;1.27;;;21.80;82.60;;;;;;4995417;28;20086;-74
2023/07/05 10:42:51;;;;;;;4.30;1.10;;;21.80;82.50;;;;;;4995431;28;20464;-73
2023/07/05 10:45:19;;;;;;;2.72;0.93;;;21.80;82.10;;;;;;4995300;28;20109;-73
2023/07/05 10:47:52;;;;;;;3.80;0.73;;;21.90;82.00;;;;;;4995662;28;20145;-73
2023/07/05 10:50:30;;;;;;;2.25;0.95;;;21.90;81.30;;;;;;4995435;28;20022;-73
2023/07/05 10:53:04;;;;;;;1.85;0.70;;;21.90;81.50;;;;;;4995452;28;20027;-74
2023/07/05 10:56:14;;;;;;;4.68;0.68;;;21.90;81.60;;;;;;4993941;28;20060;-73
2023/07/05 10:58:49;;;;;;;4.03;1.20;;;21.90;82.10;;;;;;4995332;28;20065;-74
2023/07/05 11:01:22;;;;;;;3.25;1.23;;;21.90;81.80;;;;;;4995198;28;20034;-73
2023/07/05 11:03:55;;;;;;;2.75;0.90;;;21.90;82.00;;;;;;4995123;28;20030;-73
2023/07/05 11:06:21;;;;;;;3.30;0.70;;;22.00;81.70;;;;;;4995164;28;20464;-72
2023/07/05 11:08:47;;;;;;;3.72;0.60;;;21.90;81.50;;;;;;4994362;28;20460;-73
2023/07/05 11:11:18;;;;;;;3.53;1.02;;;22.00;80.50;;;;;;4995077;28;20027;-74
2023/07/05 11:13:46;;;;;;;2.88;0.63;;;22.00;80.70;;;;;;4995138;28;20031;-74
2023/07/05 11:16:21;;;;;;;2.65;0.70;;;22.00;81.50;;;;;;4993315;28;20455;-73
2023/07/05 11:18:47;;;;;;;3.17;0.77;;;22.00;80.50;;;;;;4994897;28;20387;-73
2023/07/05 11:21:39;;;;;;;1.60;0.55;;;22.00;81.20;;;;;;4994606;28;20026;-74
2023/07/05 11:24:09;;;;;;;3.95;1.08;;;22.00;81.40;;;;;;4995064;28;20424;-73
2023/07/05 11:26:42;;;;;;;2.85;0.95;;;22.10;80.90;;;;;;4994732;28;20038;-74
2023/07/05 11:29:26;;;;;;;2.08;0.60;;;22.10;80.40;;;;;;4994495;28;20023;-74
2023/07/05 11:31:52;;;;;;;1.67;0.65;;;22.10;81.60;;;;;;4993358;28;20037;-73
2023/07/05 11:34:20;;;;;;;3.70;0.75;;;22.10;80.60;;;;;;4994470;28;20035;-74
2023/07/05 11:36:51;;;;;;;3.63;0.80;;;22.10;80.20;;;;;;4994543;28;20472;-74
2023/07/05 11:39:43;;;;;;;4.50;0.80;;;22.10;80.10;;;;;;4994538;28;20057;-74
2023/07/05 11:42:15;;;;;;;3.97;0.60;;;22.10;80.90;;;;;;4994148;28;20412;-74
2023/07/05 11:44:45;;;;;;;2.03;0.50;;;22.20;80.10;;;;;;4994359;28;20018;-73
2023/07/05 11:47:33;;;;;;;3.15;0.65;;;22.20;81.10;;;;;;4994390;28;20038;-74
2023/07/05 11:50:06;;;;;;;2.00;0.73;;;22.10;80.60;;;;;;4994320;28;20030;-73
2023/07/05 11:52:35;;;;;;;1.52;0.50;;;22.20;79.30;;;;;;4994122;28;20033;-74
2023/07/05 11:55:15;;;;;;;1.02;0.43;;;22.20;80.20;;;;;;4994526;28;20383;-73
2023/07/05 11:57:52;;;;;;;2.13;0.70;;;22.20;80.50;;;;;;4994116;28;20027;-73
2023/07/05 12:00:27;;;;;;;2.10;0.60;;;22.20;80.20;;;;;;4994255;28;20019;-74
2023/07/05 12:02:59;;;;;;;1.90;0.75;;;22.20;79.40;;;;;;4992493;28;20037;-74
2023/07/05 12:05:29;;;;;;;3.10;0.98;;;22.20;79.80;;;;;;4994224;28;20379;-73
2023/07/05 12:08:17;;;;;;;1.48;0.52;;;22.20;79.20;;;;;;4994022;28;20030;-73
2023/07/05 12:11:00;;;;;;;1.77;0.68;;;22.20;79.80;;;;;;4993941;28;20058;-73
2023/07/05 12:13:30;;;;;;;3.17;0.55;;;22.30;80.20;;;;;;4993728;28;20030;-74
2023/07/05 12:15:57;;;;;;;2.60;0.70;;;22.20;79.50;;;;;;4992687;28;20069;-74
2023/07/05 12:18:23;;;;;;;2.63;0.85;;;22.20;80.10;;;;;;4993785;28;20434;-74
2023/07/05 12:20:54;;;;;;;1.67;0.80;;;22.30;80.20;;;;;;4993303;28;20381;-74
2023/07/05 12:23:22;;;;;;;3.75;1.30;;;22.30;79.00;;;;;;4993813;28;20030;-75
2023/07/05 12:25:51;;;;;;;3.53;0.70;;;22.30;79.00;;;;;;4993818;28;20468;-74
2023/07/05 12:28:21;;;;;;;1.85;0.75;;;22.30;78.50;;;;;;4993539;28;20033;-74
2023/07/05 12:30:47;;;;;;;1.92;0.93;;;22.30;78.10;;;;;;4993816;28;20027;-74
2023/07/05 12:33:29;;;;;;;2.72;0.70;;;22.30;78.60;;;;;;4993752;28;20148;-74
2023/07/05 12:36:12;;;;;;;1.95;0.80;;;22.30;79.30;;;;;;4993812;28;20400;-73
2023/07/05 12:38:46;;;;;;;2.90;0.80;;;22.40;79.70;;;;;;4993747;28;20378;-74
2023/07/05 12:41:19;;;;;;;4.45;0.80;;;22.40;78.40;;;;;;4993842;28;20030;-74
2023/07/05 12:43:47;;;;;;;2.03;1.10;;;22.30;79.50;;;;;;4993600;28;20085;-74
2023/07/05 12:46:15;;;;;;;2.70;1.13;;;22.40;80.20;;;;;;4993793;28;20024;-73
2023/07/05 12:48:41;;;;;;;2.38;1.08;;;22.40;78.50;;;;;;4993236;28;20023;-74
2023/07/05 12:51:10;;;;;;;2.28;0.82;;;22.40;78.10;;;;;;4993688;28;20113;-74
2023/07/05 12:53:35;;;;;;;2.10;0.95;;;22.40;77.90;;;;;;4993510;28;20023;-75
2023/07/05 12:56:11;;;;;;;1.58;0.75;;;22.40;78.30;;;;;;4993361;28;20097;-74
2023/07/05 12:58:44;;;;;;;2.28;1.00;;;22.40;78.80;;;;;;4993605;28;20054;-74